createdAt,value
2022-10-02T00:02:43.311Z,98883.97
2022-10-02T00:08:19.777Z,98880.56
2022-10-02T00:13:54.971Z,98865.16
2022-10-02T00:19:19.370Z,98852.84
2022-10-02T00:25:09.233Z,98849.34
2022-10-02T00:30:39.550Z,98842.53
2022-10-02T00:36:21.872Z,98836.31
2022-10-02T00:41:52.988Z,98837.97
2022-10-02T00:47:39.848Z,98814.88
2022-10-02T00:53:26.498Z,98816.19
2022-10-02T00:59:23.827Z,98804.38
2022-10-02T01:04:48.571Z,98813.13
2022-10-02T01:10:13.109Z,98817.41
2022-10-02T01:15:44.949Z,98751.81
2022-10-02T01:21:16.569Z,98766.09
2022-10-02T01:26:41.641Z,98734.41
2022-10-02T01:32:03.809Z,98737.13
2022-10-02T01:37:37.112Z,98731.00
2022-10-02T01:43:12.130Z,98710.00
2022-10-02T01:49:24.651Z,98754.13
2022-10-02T01:55:41.496Z,98802.81
2022-10-02T02:01:28.499Z,98808.06
2022-10-02T02:07:39.478Z,98803.97
2022-10-02T02:19:27.129Z,98805.88
2022-10-02T02:25:05.309Z,98811.72
2022-10-02T02:30:28.643Z,98815.81
2022-10-02T02:35:55.918Z,98827.28
2022-10-02T02:41:24.690Z,98820.44
2022-10-02T02:47:18.919Z,98833.56
2022-10-02T02:53:01.411Z,98833.34
2022-10-02T02:58:44.650Z,98830.66
2022-10-02T03:04:06.730Z,98821.09
2022-10-02T03:09:31.291Z,98837.88
2022-10-02T03:15:09.474Z,98851.88
2022-10-02T03:21:13.676Z,98859.56
2022-10-02T03:27:04.653Z,98852.13
2022-10-02T03:32:28.750Z,98869.63
2022-10-02T03:37:57.727Z,98857.53
2022-10-02T03:43:23.908Z,98863.22
2022-10-02T03:48:45.507Z,98864.59
2022-10-02T03:54:14.914Z,98864.94
2022-10-02T03:59:41.902Z,98872.53
2022-10-02T04:05:10.437Z,98865.78
2022-10-02T04:10:32.230Z,98871.66
2022-10-02T04:16:10.094Z,98875.28
2022-10-02T04:21:55.310Z,98868.47
2022-10-02T04:27:25.869Z,98874.09
2022-10-02T04:32:57.397Z,98877.28
2022-10-02T04:38:59.598Z,98871.00
2022-10-02T04:44:47.563Z,98879.31
2022-10-02T04:50:28.563Z,98864.56
2022-10-02T04:56:35.445Z,98863.91
2022-10-02T05:02:04.685Z,98862.25
2022-10-02T05:07:32.352Z,98862.69
2022-10-02T05:13:13.655Z,98869.06
2022-10-02T05:18:47.657Z,98864.19
2022-10-02T05:24:28.482Z,98869.16
2022-10-02T05:29:50.032Z,98871.16
2022-10-02T05:35:24.508Z,98871.69
2022-10-02T05:40:52.897Z,98877.94
2022-10-02T05:46:25.601Z,98874.88
2022-10-02T05:51:47.842Z,98866.72
2022-10-02T05:57:09.526Z,98868.63
2022-10-02T06:02:46.682Z,98873.69
2022-10-02T06:08:11.088Z,98864.88
2022-10-02T06:13:53.302Z,98868.31
2022-10-02T06:19:26.249Z,98875.91
2022-10-02T06:24:51.442Z,98875.50
2022-10-02T06:30:20.068Z,98891.81
2022-10-02T06:35:52.131Z,98889.94
2022-10-02T06:41:14.243Z,98884.59
2022-10-02T06:47:05.642Z,98890.38
2022-10-02T06:52:38.405Z,98893.88
2022-10-02T06:58:01.796Z,98909.53
2022-10-02T07:03:41.610Z,98909.16
2022-10-02T07:09:18.990Z,98906.72
2022-10-02T07:14:56.043Z,98904.97
2022-10-02T07:20:24.272Z,98903.63
2022-10-02T07:26:04.522Z,98905.06
2022-10-02T07:31:34.926Z,98904.97
2022-10-02T07:37:11.357Z,98921.50
2022-10-02T07:42:44.050Z,98927.41
2022-10-02T07:48:16.330Z,98928.88
2022-10-02T07:53:45.437Z,98938.75
2022-10-02T07:59:16.708Z,98955.22
2022-10-02T08:04:38.560Z,98960.88
2022-10-02T08:10:03.757Z,98947.31
2022-10-02T08:15:33.289Z,98960.41
2022-10-02T08:21:20.308Z,98960.88
2022-10-02T08:26:53.190Z,98962.47
2022-10-02T08:32:28.455Z,98982.75
2022-10-02T08:38:13.528Z,98978.47
2022-10-02T08:43:54.886Z,98994.28
2022-10-02T08:49:28.059Z,98995.94
2022-10-02T08:55:17.622Z,99000.53
2022-10-02T09:01:05.543Z,99013.19
2022-10-02T09:06:54.139Z,99012.38
2022-10-02T09:12:36.399Z,99013.84
2022-10-02T09:17:58.638Z,99022.31
2022-10-02T09:23:38.773Z,99028.72
2022-10-02T09:29:12.762Z,99034.50
2022-10-02T09:34:44.150Z,99034.28
2022-10-02T09:40:26.299Z,99036.06
2022-10-02T09:45:59.633Z,99037.97
2022-10-02T09:51:27.445Z,99043.66
2022-10-02T09:56:49.163Z,99037.09
2022-10-02T10:02:22.322Z,99043.38
2022-10-02T10:07:46.708Z,99040.91
2022-10-02T10:13:16.705Z,99049.56
2022-10-02T10:18:57.584Z,99029.84
2022-10-02T10:24:36.750Z,99037.53
2022-10-02T10:30:02.171Z,99039.25
2022-10-02T10:35:32.004Z,99032.13
2022-10-02T10:41:05.962Z,99041.38
2022-10-02T10:46:52.070Z,99044.41
2022-10-02T10:52:20.691Z,99053.78
2022-10-02T10:58:04.218Z,99063.59
2022-10-02T11:03:35.291Z,99072.25
2022-10-02T11:09:09.642Z,99071.22
2022-10-02T11:14:43.942Z,99077.44
2022-10-02T11:20:21.651Z,99074.94
2022-10-02T11:25:49.642Z,99075.03
2022-10-02T11:31:25.636Z,99080.28
2022-10-02T11:36:53.270Z,99089.72
2022-10-02T11:42:26.049Z,99077.81
2022-10-02T11:47:47.738Z,99085.16
2022-10-02T11:53:32.611Z,99077.63
2022-10-02T11:58:57.739Z,99077.91
2022-10-02T12:04:41.260Z,99088.06
2022-10-02T12:10:24.107Z,99084.22
2022-10-02T12:15:45.478Z,99091.25
2022-10-02T12:21:35.118Z,99091.91
2022-10-02T12:27:13.855Z,99101.97
2022-10-02T12:32:54.429Z,99095.78
2022-10-02T12:38:28.084Z,99092.59
2022-10-02T12:43:56.967Z,99097.88
2022-10-02T12:49:37.485Z,99117.81
2022-10-02T12:55:18.104Z,99109.09
2022-10-02T13:00:58.298Z,99105.91
2022-10-02T13:06:24.588Z,99117.66
2022-10-02T13:11:56.867Z,99115.41
2022-10-02T13:17:26.164Z,99108.88
2022-10-02T13:22:55.185Z,99109.09
2022-10-02T13:28:23.272Z,99093.81
2022-10-02T13:33:54.883Z,99107.22
2022-10-02T13:39:16.863Z,99102.00
2022-10-02T13:44:39.150Z,99114.25
2022-10-02T13:50:14.143Z,99116.81
2022-10-02T13:55:45.282Z,99106.00
2022-10-02T14:01:21.534Z,99112.41
2022-10-02T14:06:51.376Z,99107.19
2022-10-02T14:12:13.069Z,99112.59
2022-10-02T14:17:39.507Z,99104.78
2022-10-02T14:23:07.284Z,99115.31
2022-10-02T14:28:36.499Z,99096.97
2022-10-02T14:34:17.848Z,99107.94
2022-10-02T14:39:39.902Z,99111.34
2022-10-02T14:45:22.104Z,99118.34
2022-10-02T14:51:01.161Z,99121.06
2022-10-02T14:56:55.371Z,99123.94
2022-10-02T15:02:35.576Z,99113.16
2022-10-02T15:07:58.393Z,99131.06
2022-10-02T15:13:24.408Z,99124.56
2022-10-02T15:18:59.887Z,99120.06
2022-10-02T15:24:28.458Z,99113.25
2022-10-02T15:29:57.940Z,99111.47
2022-10-02T15:35:26.878Z,99109.34
2022-10-02T15:40:51.759Z,99115.44
2022-10-02T15:46:15.939Z,99119.53
2022-10-02T15:52:01.329Z,99104.72
2022-10-02T15:57:48.419Z,99122.25
2022-10-02T16:09:25.445Z,99123.38
2022-10-02T16:14:53.485Z,99117.44
2022-10-02T16:20:33.854Z,99121.97
2022-10-02T16:26:04.982Z,99120.31
2022-10-02T16:31:26.533Z,99118.34
2022-10-02T16:37:10.816Z,99108.53
2022-10-02T16:42:52.842Z,99111.91
2022-10-02T16:48:26.790Z,99109.56
2022-10-02T16:53:52.563Z,99127.88
2022-10-02T16:59:17.004Z,99127.31
2022-10-02T17:04:43.544Z,99117.16
2022-10-02T17:10:19.156Z,99108.81
2022-10-02T17:15:53.993Z,99098.34
2022-10-02T17:21:19.790Z,99103.72
2022-10-02T17:26:50.421Z,99100.66
2022-10-02T17:32:12.564Z,99093.69
2022-10-02T17:37:52.602Z,99099.28
2022-10-02T17:43:14.462Z,99100.09
2022-10-02T17:48:40.094Z,99113.63
2022-10-02T17:54:31.585Z,99120.34
2022-10-02T18:00:06.515Z,99115.59
2022-10-02T18:05:27.972Z,99141.03
2022-10-02T18:10:58.573Z,99136.22
2022-10-02T18:16:36.297Z,99129.31
2022-10-02T18:22:35.778Z,99110.53
2022-10-02T18:28:10.968Z,99111.78
2022-10-02T18:34:04.915Z,99122.91
2022-10-02T18:39:45.935Z,99121.16
2022-10-02T18:45:29.171Z,99119.75
2022-10-02T18:51:08.724Z,99116.88
2022-10-02T18:56:54.706Z,99109.03
2022-10-02T19:02:38.412Z,99116.69
2022-10-02T19:08:07.065Z,99113.63
2022-10-02T19:13:33.323Z,99089.91
2022-10-02T19:19:16.992Z,99084.25
2022-10-02T19:24:41.301Z,99064.06
2022-10-02T19:30:07.567Z,99058.69
2022-10-02T19:35:32.942Z,99070.97
2022-10-02T19:40:56.262Z,99064.28
2022-10-02T19:46:20.329Z,99056.56
2022-10-02T19:51:45.932Z,99054.66
2022-10-02T19:57:18.824Z,99053.94
2022-10-02T20:02:43.072Z,99041.94
2022-10-02T20:08:13.906Z,99041.69
2022-10-02T20:13:41.651Z,99028.75
2022-10-02T20:19:10.083Z,99018.84
2022-10-02T20:24:40.243Z,99001.41
2022-10-02T20:30:12.851Z,99012.69
2022-10-02T20:35:47.492Z,98999.13
2022-10-02T20:41:29.963Z,99005.16
2022-10-02T20:46:53.331Z,98992.50
2022-10-02T20:52:49.374Z,98990.59
2022-10-02T20:58:26.542Z,98998.97
2022-10-02T21:03:59.584Z,99002.94
2022-10-02T21:09:58.622Z,98991.50
2022-10-02T21:15:24.323Z,98988.69
2022-10-02T21:21:04.983Z,98982.53
2022-10-02T21:26:43.742Z,98981.56
2022-10-02T21:32:16.222Z,98954.50
2022-10-02T21:37:47.745Z,98949.72
2022-10-02T21:43:12.581Z,98931.81
2022-10-02T21:48:40.291Z,98925.31
2022-10-02T21:54:20.703Z,98923.84
2022-10-02T22:00:03.391Z,98922.41
2022-10-02T22:05:40.071Z,98925.41
2022-10-02T22:11:20.602Z,98920.66
2022-10-02T22:17:02.502Z,98941.84
2022-10-02T22:22:42.823Z,98932.97
2022-10-02T22:28:24.847Z,98929.97
2022-10-02T22:34:05.183Z,98918.13
2022-10-02T22:39:32.161Z,98918.91
2022-10-02T22:45:03.113Z,98927.16
2022-10-02T22:50:30.523Z,98943.63
2022-10-02T22:55:56.342Z,98936.41
2022-10-02T23:01:29.226Z,98934.22
2022-10-02T23:06:53.894Z,98924.41
2022-10-02T23:12:39.723Z,98921.75
2022-10-02T23:18:21.401Z,98922.25
2022-10-02T23:24:09.523Z,98908.00
2022-10-02T23:29:58.761Z,98932.56
2022-10-02T23:41:37.800Z,98869.69
2022-10-02T23:47:15.659Z,98861.56
2022-10-02T23:53:02.045Z,98867.75
2022-10-02T23:58:29.642Z,98829.75
